Time;durP1;ratioP1;P1;durP2;ratioP2;P2;SDS_P1;SDS_P2;PMS_P1;PMS_P2;Temp;Humidity;BMP_temperature;BMP_pressure;BME280_temperature;BME280_humidity;BME280_pressure;Samples;Min_cycle;Max_cycle;Signal;HPM_P1;HPM_P2
2023/06/12 00:03:32;;;;;;;6.28;4.18;;;;;;;;;;10119578;28;20058;-81
2023/06/12 00:08:29;;;;;;;7.25;4.30;;;;;;;;;;10114313;28;20564;-82
2023/06/12 00:13:24;;;;;;;5.15;4.40;;;;;;;;;;10114849;28;20056;-82
2023/06/12 00:18:19;;;;;;;7.75;4.70;;;;;;;;;;10119482;28;20131;-80
2023/06/12 00:23:13;;;;;;;6.07;5.10;;;;;;;;;;10109161;28;20063;-90
2023/06/12 00:28:06;;;;;;;6.18;5.10;;;;;;;;;;10092622;28;20144;-77
2023/06/12 00:33:00;;;;;;;6.25;4.60;;;;;;;;;;10112693;28;20102;-77
2023/06/12 00:37:54;;;;;;;5.28;4.65;;;;;;;;;;10091082;28;20045;-80
2023/06/12 00:42:50;;;;;;;5.63;5.03;;;;;;;;;;10109646;28;20075;-83
2023/06/12 00:47:46;;;;;;;6.70;5.47;;;;;;;;;;10116285;28;20041;-84
2023/06/12 00:53:00;;;;;;;6.93;5.22;;;;;;;;;;10115712;28;20048;-86
2023/06/12 00:57:54;;;;;;;7.63;5.43;;;;;;;;;;10109465;28;20096;-81
2023/06/12 01:02:52;;;;;;;7.90;5.82;;;;;;;;;;10111976;28;20060;-80
2023/06/12 01:07:51;;;;;;;6.80;6.07;;;;;;;;;;10111839;28;20447;-80
2023/06/12 01:12:45;;;;;;;7.47;6.00;;;;;;;;;;10113124;28;20127;-80
2023/06/12 01:17:40;;;;;;;7.00;6.32;;;;;;;;;;10139018;28;20068;-79
2023/06/12 01:22:37;;;;;;;7.65;6.60;;;;;;;;;;10122113;28;20045;-81
2023/06/12 01:27:42;;;;;;;7.22;6.53;;;;;;;;;;10111317;28;20545;-81
2023/06/12 01:32:37;;;;;;;12.75;6.63;;;;;;;;;;10116675;28;20085;-80
2023/06/12 01:37:47;;;;;;;7.05;6.28;;;;;;;;;;10096653;28;20042;-80
2023/06/12 01:42:45;;;;;;;7.38;5.50;;;;;;;;;;10108176;28;20052;-80
2023/06/12 01:47:39;;;;;;;8.02;5.88;;;;;;;;;;10103848;28;20485;-80
2023/06/12 01:52:32;;;;;;;10.07;6.75;;;;;;;;;;10112615;28;20056;-81
2023/06/12 01:57:27;;;;;;;8.48;6.57;;;;;;;;;;10106361;28;20480;-81
2023/06/12 02:02:21;;;;;;;7.57;6.88;;;;;;;;;;10105029;28;20053;-81
2023/06/12 02:07:16;;;;;;;8.30;7.50;;;;;;;;;;10109102;28;20626;-81
2023/06/12 02:12:11;;;;;;;11.57;8.27;;;;;;;;;;10109422;28;20530;-81
2023/06/12 02:17:05;;;;;;;9.63;7.43;;;;;;;;;;10126838;28;20041;-80
2023/06/12 02:21:59;;;;;;;8.10;7.28;;;;;;;;;;10129344;28;20511;-81
2023/06/12 02:26:53;;;;;;;8.00;7.20;;;;;;;;;;10137141;28;20067;-81
2023/06/12 02:31:46;;;;;;;9.10;7.13;;;;;;;;;;10135000;28;20416;-81
2023/06/12 02:36:46;;;;;;;6.63;5.47;;;;;;;;;;10106734;28;20045;-81
2023/06/12 02:41:47;;;;;;;6.32;5.72;;;;;;;;;;10109801;28;20099;-81
2023/06/12 02:46:53;;;;;;;7.50;6.72;;;;;;;;;;10105922;28;20045;-81
2023/06/12 02:51:50;;;;;;;6.72;5.90;;;;;;;;;;10140859;28;20049;-81
2023/06/12 02:56:47;;;;;;;6.47;5.50;;;;;;;;;;10126714;28;20072;-81
2023/06/12 03:01:43;;;;;;;7.93;7.17;;;;;;;;;;10134228;28;20508;-80
2023/06/12 03:06:47;;;;;;;8.15;6.88;;;;;;;;;;10112161;28;20484;-81
2023/06/12 03:11:40;;;;;;;8.35;6.32;;;;;;;;;;10132106;28;20044;-80
2023/06/12 03:16:34;;;;;;;11.52;6.85;;;;;;;;;;10135659;28;20075;-81
2023/06/12 03:21:27;;;;;;;6.63;5.90;;;;;;;;;;10142699;28;20045;-81
2023/06/12 03:26:21;;;;;;;7.20;6.00;;;;;;;;;;10126340;28;20057;-81
2023/06/12 03:31:14;;;;;;;6.32;5.68;;;;;;;;;;10142616;28;20091;-81
2023/06/12 03:36:08;;;;;;;5.65;5.15;;;;;;;;;;10129590;28;20151;-81
2023/06/12 03:41:01;;;;;;;5.55;4.93;;;;;;;;;;10132024;28;20436;-81
2023/06/12 03:45:55;;;;;;;6.35;5.75;;;;;;;;;;10111941;28;20048;-81
2023/06/12 03:50:48;;;;;;;13.52;6.00;;;;;;;;;;10126202;28;20076;-81
2023/06/12 03:55:43;;;;;;;7.00;6.30;;;;;;;;;;10143927;28;20079;-81
2023/06/12 04:00:36;;;;;;;11.52;6.28;;;;;;;;;;10138441;28;20554;-81
2023/06/12 04:05:30;;;;;;;7.28;6.32;;;;;;;;;;10143066;28;20144;-81
2023/06/12 04:10:24;;;;;;;6.55;5.95;;;;;;;;;;10149424;28;20474;-82
2023/06/12 04:15:19;;;;;;;6.75;6.05;;;;;;;;;;10150203;28;20049;-82
2023/06/12 04:20:13;;;;;;;10.82;5.78;;;;;;;;;;10149117;28;20495;-82
2023/06/12 04:25:08;;;;;;;8.02;6.00;;;;;;;;;;10150558;28;20131;-83
2023/06/12 04:30:02;;;;;;;7.75;5.82;;;;;;;;;;10127423;28;20049;-81
2023/06/12 04:34:56;;;;;;;9.07;6.10;;;;;;;;;;10148335;28;20048;-81
2023/06/12 04:39:50;;;;;;;6.43;5.57;;;;;;;;;;10136630;28;20501;-81
2023/06/12 04:44:46;;;;;;;8.18;5.25;;;;;;;;;;10125050;28;20059;-81
2023/06/12 04:49:45;;;;;;;6.40;5.20;;;;;;;;;;10147944;28;20049;-81
2023/06/12 04:54:41;;;;;;;5.57;5.00;;;;;;;;;;10149244;28;20128;-81
2023/06/12 04:59:37;;;;;;;6.53;5.38;;;;;;;;;;10135840;28;20500;-80
2023/06/12 05:04:31;;;;;;;6.93;6.05;;;;;;;;;;10131678;28;20079;-80
2023/06/12 05:09:25;;;;;;;10.10;6.32;;;;;;;;;;10134750;28;20045;-78
2023/06/12 05:14:19;;;;;;;9.88;8.00;;;;;;;;;;10121520;28;20064;-71
2023/06/12 05:19:13;;;;;;;6.80;6.07;;;;;;;;;;10121200;28;20098;-71
2023/06/12 05:24:09;;;;;;;10.93;7.47;;;;;;;;;;10137054;28;20102;-72
2023/06/12 05:29:03;;;;;;;8.10;7.15;;;;;;;;;;10146878;28;20044;-73
2023/06/12 05:33:56;;;;;;;10.70;6.57;;;;;;;;;;10147334;28;20143;-71
2023/06/12 05:38:49;;;;;;;7.72;5.28;;;;;;;;;;10133019;28;20124;-72
2023/06/12 05:43:45;;;;;;;6.70;5.93;;;;;;;;;;10107870;28;20110;-71
2023/06/12 05:48:39;;;;;;;6.00;4.63;;;;;;;;;;10133257;28;20574;-70
2023/06/12 05:53:34;;;;;;;5.97;5.13;;;;;;;;;;10147791;28;20052;-77
2023/06/12 05:58:29;;;;;;;5.47;4.95;;;;;;;;;;10107800;28;20139;-76
2023/06/12 06:03:24;;;;;;;6.45;4.57;;;;;;;;;;10133050;28;20487;-76
2023/06/12 06:08:20;;;;;;;5.57;4.65;;;;;;;;;;10121261;28;20053;-76
2023/06/12 06:13:12;;;;;;;6.57;4.15;;;;;;;;;;10117760;28;20045;-76
2023/06/12 06:18:07;;;;;;;6.30;4.65;;;;;;;;;;10115465;28;20052;-76
2023/06/12 06:23:01;;;;;;;5.15;4.53;;;;;;;;;;10142578;28;20062;-77
2023/06/12 06:27:56;;;;;;;5.13;4.63;;;;;;;;;;10144632;28;20567;-78
2023/06/12 06:32:50;;;;;;;6.93;4.70;;;;;;;;;;10138922;28;20136;-79
2023/06/12 06:37:43;;;;;;;5.10;4.55;;;;;;;;;;10115559;28;20463;-77
2023/06/12 06:42:37;;;;;;;6.30;5.13;;;;;;;;;;10128969;28;20048;-76
2023/06/12 06:47:35;;;;;;;6.65;4.88;;;;;;;;;;10118899;28;20049;-77
2023/06/12 06:52:32;;;;;;;5.50;4.68;;;;;;;;;;10132084;28;20067;-77
2023/06/12 06:57:26;;;;;;;5.40;4.90;;;;;;;;;;10142668;28;20523;-77
2023/06/12 07:02:18;;;;;;;6.72;5.57;;;;;;;;;;10139470;28;20047;-76
2023/06/12 07:07:15;;;;;;;5.90;5.25;;;;;;;;;;10138486;28;20098;-76
2023/06/12 07:12:11;;;;;;;6.38;5.15;;;;;;;;;;10135783;28;20139;-76
2023/06/12 07:17:05;;;;;;;5.18;4.68;;;;;;;;;;10144152;28;20464;-76
2023/06/12 07:21:57;;;;;;;8.98;5.65;;;;;;;;;;10143905;28;20056;-75
2023/06/12 07:26:50;;;;;;;9.93;5.45;;;;;;;;;;10143391;28;20454;-75
2023/06/12 07:31:44;;;;;;;9.10;5.85;;;;;;;;;;10131230;28;20088;-75
2023/06/12 07:36:38;;;;;;;9.93;5.35;;;;;;;;;;10137719;28;20052;-75
2023/06/12 07:41:32;;;;;;;6.55;4.95;;;;;;;;;;10138372;28;20110;-75
2023/06/12 07:46:25;;;;;;;7.28;5.22;;;;;;;;;;10125674;28;20082;-75
2023/06/12 07:51:19;;;;;;;8.80;5.50;;;;;;;;;;10151217;28;20510;-75
2023/06/12 07:56:16;;;;;;;5.20;4.70;;;;;;;;;;10126855;28;20166;-75
2023/06/12 08:01:13;;;;;;;6.28;5.53;;;;;;;;;;10096916;28;20057;-75
2023/06/12 08:06:12;;;;;;;6.53;4.75;;;;;;;;;;10112886;28;20052;-76
2023/06/12 08:11:07;;;;;;;9.13;5.80;;;;;;;;;;10128374;28;20570;-75
2023/06/12 08:16:02;;;;;;;8.23;6.85;;;;;;;;;;10126323;28;20756;-75
2023/06/12 08:20:57;;;;;;;7.50;5.80;;;;;;;;;;10122076;28;20388;-74
2023/06/12 08:25:51;;;;;;;7.63;6.40;;;;;;;;;;10113383;28;20076;-74
2023/06/12 08:30:45;;;;;;;10.30;7.28;;;;;;;;;;10141122;28;20048;-74
2023/06/12 08:35:39;;;;;;;10.07;9.13;;;;;;;;;;10120145;28;20083;-74
2023/06/12 08:40:32;;;;;;;8.65;7.75;;;;;;;;;;10130751;28;20121;-73
2023/06/12 08:45:27;;;;;;;10.38;7.95;;;;;;;;;;10123252;28;20442;-73
2023/06/12 08:50:21;;;;;;;10.85;7.28;;;;;;;;;;10128040;28;20052;-73
2023/06/12 08:55:15;;;;;;;8.32;7.45;;;;;;;;;;10148334;28;20044;-73
2023/06/12 09:00:14;;;;;;;9.52;7.13;;;;;;;;;;10148165;28;20102;-73
2023/06/12 09:05:15;;;;;;;6.82;6.22;;;;;;;;;;10147721;28;20049;-73
2023/06/12 09:10:10;;;;;;;23.63;8.77;;;;;;;;;;10148198;28;20098;-73
2023/06/12 09:15:09;;;;;;;8.50;6.80;;;;;;;;;;10148869;28;20052;-73
2023/06/12 09:20:06;;;;;;;8.50;7.03;;;;;;;;;;10147371;28;20052;-73
2023/06/12 09:25:05;;;;;;;9.50;8.60;;;;;;;;;;10147073;28;20091;-73
2023/06/12 09:29:59;;;;;;;17.67;8.52;;;;;;;;;;10130505;28;20083;-74
2023/06/12 09:34:53;;;;;;;9.05;6.75;;;;;;;;;;10132383;28;20057;-73
2023/06/12 09:39:46;;;;;;;8.80;5.70;;;;;;;;;;10133178;28;20068;-74
2023/06/12 09:44:39;;;;;;;7.50;5.60;;;;;;;;;;10145303;28;20593;-73
2023/06/12 09:49:34;;;;;;;5.18;4.68;;;;;;;;;;10146855;28;20140;-74
2023/06/12 09:54:30;;;;;;;7.80;3.92;;;;;;;;;;10145812;28;20049;-75
2023/06/12 09:59:27;;;;;;;5.40;3.83;;;;;;;;;;10145704;28;20518;-73
2023/06/12 10:04:33;;;;;;;5.38;3.13;;;;;;;;;;10145721;28;20381;-72
2023/06/12 10:09:29;;;;;;;3.13;2.83;;;;;;;;;;10145107;28;20085;-71
2023/06/12 10:14:26;;;;;;;7.25;2.88;;;;;;;;;;10146230;28;20056;-72
2023/06/12 10:19:22;;;;;;;3.20;2.20;;;;;;;;;;10142215;28;20071;-72
2023/06/12 10:24:15;;;;;;;3.05;2.58;;;;;;;;;;10145683;28;20057;-72
2023/06/12 10:29:27;;;;;;;2.65;2.10;;;;;;;;;;10141614;28;20043;-72
2023/06/12 10:34:28;;;;;;;3.20;2.60;;;;;;;;;;10118469;28;20044;-72
2023/06/12 10:39:24;;;;;;;4.13;2.42;;;;;;;;;;10132752;28;20041;-72
2023/06/12 10:44:39;;;;;;;2.05;1.92;;;;;;;;;;10142177;28;20055;-72
2023/06/12 10:49:56;;;;;;;2.97;2.70;;;;;;;;;;10107307;28;20518;-72
2023/06/12 10:55:08;;;;;;;3.70;2.00;;;;;;;;;;10144856;28;20139;-71
2023/06/12 11:00:02;;;;;;;2.10;1.90;;;;;;;;;;10143889;28;20529;-72
2023/06/12 11:04:56;;;;;;;7.10;2.00;;;;;;;;;;10129683;28;20450;-72
2023/06/12 11:09:50;;;;;;;;;;;;;;;;;;10139919;28;20045;-71
2023/06/12 11:14:44;;;;;;;4.85;2.65;;;;;;;;;;10155979;28;19920;-71
2023/06/12 11:19:38;;;;;;;3.60;3.10;;;;;;;;;;10157395;28;20070;-72
2023/06/12 11:24:31;;;;;;;2.33;2.13;;;;;;;;;;10157390;28;20462;-71
2023/06/12 11:29:25;;;;;;;3.45;2.63;;;;;;;;;;10157335;28;20495;-71
2023/06/12 11:34:19;;;;;;;7.30;2.50;;;;;;;;;;10131374;28;20102;-72
2023/06/12 11:39:19;;;;;;;5.13;2.83;;;;;;;;;;10131368;28;20077;-72
2023/06/12 11:44:34;;;;;;;4.30;2.50;;;;;;;;;;10066981;28;20049;-71
2023/06/12 11:49:31;;;;;;;3.67;2.40;;;;;;;;;;10091741;28;20079;-71
2023/06/12 11:55:01;;;;;;;7.13;2.25;;;;;;;;;;10111257;28;20053;-71
2023/06/12 11:59:58;;;;;;;4.15;2.25;;;;;;;;;;10098204;28;20053;-71
2023/06/12 12:04:53;;;;;;;;;;;;;;;;;;10155104;28;20571;-71
2023/06/12 12:09:46;;;;;;;;;;;;;;;;;;10146350;28;19927;-70
2023/06/12 12:14:50;;;;;;;6.90;1.92;;;;;;;;;;10154854;28;20413;-70
2023/06/12 12:19:44;;;;;;;3.90;2.00;;;;;;;;;;10116463;28;20091;-70
2023/06/12 12:24:38;;;;;;;3.80;2.50;;;;;;;;;;10137954;28;20059;-71
2023/06/12 12:29:33;;;;;;;2.58;1.80;;;;;;;;;;10145675;28;20327;-70
2023/06/12 12:34:46;;;;;;;2.17;1.80;;;;;;;;;;10140714;28;20041;-70
2023/06/12 12:39:40;;;;;;;2.90;1.70;;;;;;;;;;10135730;28;20063;-70
2023/06/12 12:44:34;;;;;;;2.10;1.67;;;;;;;;;;10146790;28;20083;-70
2023/06/12 12:49:27;;;;;;;5.28;1.70;;;;;;;;;;10147343;28;20121;-70
2023/06/12 12:54:20;;;;;;;2.33;2.13;;;;;;;;;;10147216;28;20056;-70
2023/06/12 12:59:14;;;;;;;4.47;1.83;;;;;;;;;;10147100;28;20064;-70
2023/06/12 13:04:07;;;;;;;2.97;1.37;;;;;;;;;;10146806;28;20534;-70
2023/06/12 13:09:01;;;;;;;2.25;1.60;;;;;;;;;;10148838;28;20048;-70
2023/06/12 13:13:54;;;;;;;2.00;1.83;;;;;;;;;;10138476;28;20052;-70
2023/06/12 13:18:48;;;;;;;2.92;1.80;;;;;;;;;;10135088;28;20473;-70
2023/06/12 13:23:42;;;;;;;5.82;2.33;;;;;;;;;;10123059;28;20072;-69
2023/06/12 13:28:36;;;;;;;2.33;2.13;;;;;;;;;;10112733;28;20083;-70
2023/06/12 13:33:30;;;;;;;2.80;2.10;;;;;;;;;;10121239;28;20056;-69
2023/06/12 13:38:23;;;;;;;2.10;1.90;;;;;;;;;;10114111;28;20048;-69
2023/06/12 13:43:17;;;;;;;2.80;1.80;;;;;;;;;;10139097;28;20135;-69
2023/06/12 13:48:12;;;;;;;2.00;1.70;;;;;;;;;;10141299;28;20053;-69
2023/06/12 13:53:05;;;;;;;3.03;2.10;;;;;;;;;;10146919;28;20140;-68
2023/06/12 13:57:58;;;;;;;3.67;2.28;;;;;;;;;;10143447;28;20052;-68
2023/06/12 14:02:51;;;;;;;3.13;2.03;;;;;;;;;;10145425;28;20067;-68
2023/06/12 14:07:45;;;;;;;5.07;2.13;;;;;;;;;;10144888;28;20059;-68
2023/06/12 14:12:39;;;;;;;2.78;2.05;;;;;;;;;;10143692;28;20068;-68
2023/06/12 14:17:33;;;;;;;4.75;2.65;;;;;;;;;;10145455;28;20048;-68
2023/06/12 14:22:27;;;;;;;5.63;2.13;;;;;;;;;;10145392;28;20052;-67
2023/06/12 14:27:20;;;;;;;3.92;2.70;;;;;;;;;;10134514;28;20060;-68
2023/06/12 14:32:14;;;;;;;4.57;3.08;;;;;;;;;;10113215;28;20085;-68
2023/06/12 14:37:08;;;;;;;5.50;2.90;;;;;;;;;;10143973;28;20155;-67
2023/06/12 14:42:02;;;;;;;3.83;2.83;;;;;;;;;;10142342;28;20510;-67
2023/06/12 14:46:55;;;;;;;4.55;2.53;;;;;;;;;;10143349;28;20072;-67
2023/06/12 14:51:48;;;;;;;2.40;2.20;;;;;;;;;;10143924;28;20052;-67
2023/06/12 14:56:42;;;;;;;2.92;2.42;;;;;;;;;;10142276;28;20155;-67
2023/06/12 15:01:35;;;;;;;3.25;2.95;;;;;;;;;;10143795;28;20125;-67
2023/06/12 15:06:29;;;;;;;4.25;2.85;;;;;;;;;;10143216;28;20041;-67
2023/06/12 15:11:23;;;;;;;4.93;3.13;;;;;;;;;;10143127;28;20411;-67
2023/06/12 15:16:17;;;;;;;5.05;3.20;;;;;;;;;;10144488;28;20131;-67
2023/06/12 15:21:13;;;;;;;3.42;3.13;;;;;;;;;;10144102;28;20044;-67
2023/06/12 15:26:06;;;;;;;6.28;3.00;;;;;;;;;;10137437;28;20048;-67
2023/06/12 15:30:59;;;;;;;4.30;2.88;;;;;;;;;;10130945;28;20041;-67
2023/06/12 15:35:53;;;;;;;6.50;3.78;;;;;;;;;;10130740;28;20057;-67
2023/06/12 15:40:48;;;;;;;3.45;2.78;;;;;;;;;;10117929;28;20079;-69
2023/06/12 15:45:42;;;;;;;5.07;3.00;;;;;;;;;;10118446;28;20055;-70
2023/06/12 15:50:35;;;;;;;8.30;3.58;;;;;;;;;;10137277;28;20123;-72
2023/06/12 15:55:29;;;;;;;5.85;3.22;;;;;;;;;;10139984;28;20048;-72
2023/06/12 16:00:24;;;;;;;4.30;2.95;;;;;;;;;;10151455;28;20067;-72
2023/06/12 16:05:18;;;;;;;4.32;2.95;;;;;;;;;;10139063;28;20052;-72
2023/06/12 16:10:11;;;;;;;5.65;3.25;;;;;;;;;;10145507;28;20127;-71
2023/06/12 16:15:05;;;;;;;4.32;2.83;;;;;;;;;;10147501;28;20557;-71
2023/06/12 16:19:59;;;;;;;4.93;3.33;;;;;;;;;;10150406;28;20083;-72
2023/06/12 16:24:54;;;;;;;12.60;5.35;;;;;;;;;;10142607;28;20041;-72
2023/06/12 16:29:47;;;;;;;7.07;3.75;;;;;;;;;;10128194;28;20102;-72
2023/06/12 16:34:41;;;;;;;5.55;3.20;;;;;;;;;;10129606;28;20148;-72
2023/06/12 16:39:38;;;;;;;4.65;3.60;;;;;;;;;;10141467;28;20048;-72
2023/06/12 16:44:32;;;;;;;4.13;3.25;;;;;;;;;;10149307;28;20139;-72
2023/06/12 16:49:25;;;;;;;4.25;2.95;;;;;;;;;;10149431;28;20083;-71
2023/06/12 16:54:19;;;;;;;3.88;2.72;;;;;;;;;;10149450;28;20060;-71
2023/06/12 16:59:13;;;;;;;6.25;3.40;;;;;;;;;;10150001;28;20094;-71
2023/06/12 17:04:07;;;;;;;4.32;3.00;;;;;;;;;;10146625;28;20049;-71
2023/06/12 17:09:01;;;;;;;2.78;2.58;;;;;;;;;;10147890;28;20048;-72
2023/06/12 17:13:55;;;;;;;4.63;3.35;;;;;;;;;;10148512;28;20056;-71
2023/06/12 17:18:50;;;;;;;3.20;2.90;;;;;;;;;;10147230;28;20068;-72
2023/06/12 17:23:43;;;;;;;3.25;2.97;;;;;;;;;;10144233;28;20534;-72
2023/06/12 17:28:37;;;;;;;25.08;4.70;;;;;;;;;;10136309;28;20077;-71
2023/06/12 17:33:33;;;;;;;3.45;2.90;;;;;;;;;;10114972;28;20041;-72
2023/06/12 17:38:28;;;;;;;4.18;2.60;;;;;;;;;;10132121;28;20491;-72
2023/06/12 17:43:23;;;;;;;5.20;2.95;;;;;;;;;;10117547;28;20478;-72
2023/06/12 17:48:16;;;;;;;4.47;3.15;;;;;;;;;;10117888;28;20099;-71
2023/06/12 17:53:09;;;;;;;3.40;3.10;;;;;;;;;;10123691;28;20053;-71
2023/06/12 17:58:03;;;;;;;4.90;4.50;;;;;;;;;;10113925;28;20053;-71
2023/06/12 18:02:56;;;;;;;5.35;3.30;;;;;;;;;;10124121;28;20058;-72
2023/06/12 18:07:50;;;;;;;8.25;3.65;;;;;;;;;;10142664;28;20079;-72
2023/06/12 18:12:45;;;;;;;5.85;3.72;;;;;;;;;;10144441;28;20080;-72
2023/06/12 18:17:38;;;;;;;3.67;3.25;;;;;;;;;;10145774;28;20068;-72
2023/06/12 18:22:32;;;;;;;6.05;3.70;;;;;;;;;;10138519;28;20135;-72
2023/06/12 18:27:26;;;;;;;4.38;3.35;;;;;;;;;;10118710;28;20044;-71
2023/06/12 18:32:19;;;;;;;7.60;3.33;;;;;;;;;;10132232;28;20062;-72
2023/06/12 18:37:12;;;;;;;5.72;3.22;;;;;;;;;;10141664;28;20044;-71
2023/06/12 18:42:07;;;;;;;3.58;3.28;;;;;;;;;;10143399;28;20132;-72
2023/06/12 18:47:00;;;;;;;4.35;3.95;;;;;;;;;;10144955;28;20121;-72
2023/06/12 18:51:54;;;;;;;3.53;3.22;;;;;;;;;;10134025;28;20061;-72
2023/06/12 18:56:48;;;;;;;8.57;3.63;;;;;;;;;;10140319;28;20048;-72
2023/06/12 19:01:42;;;;;;;3.33;3.03;;;;;;;;;;10116179;28;20053;-71
2023/06/12 19:06:37;;;;;;;4.65;3.88;;;;;;;;;;10133751;28;20044;-71
2023/06/12 19:11:30;;;;;;;3.38;2.75;;;;;;;;;;10141124;28;20041;-71
2023/06/12 19:16:23;;;;;;;3.65;2.70;;;;;;;;;;10144082;28;20060;-71
2023/06/12 19:21:17;;;;;;;3.22;2.92;;;;;;;;;;10139622;28;20051;-71
2023/06/12 19:26:15;;;;;;;3.67;3.38;;;;;;;;;;10136878;28;20083;-77
2023/06/12 19:31:11;;;;;;;8.30;3.15;;;;;;;;;;10142911;28;20056;-78
2023/06/12 19:36:07;;;;;;;4.13;2.97;;;;;;;;;;10143938;28;20419;-79
2023/06/12 19:41:01;;;;;;;6.47;5.28;;;;;;;;;;10150067;28;20095;-78
2023/06/12 19:45:54;;;;;;;4.40;4.00;;;;;;;;;;10150854;28;20053;-81
2023/06/12 19:50:49;;;;;;;7.20;3.97;;;;;;;;;;10132238;28;20403;-84
2023/06/12 19:55:42;;;;;;;8.52;4.10;;;;;;;;;;10144270;28;20448;-86
2023/06/12 20:00:36;;;;;;;8.75;5.25;;;;;;;;;;10147324;28;20098;-66
2023/06/12 20:05:29;;;;;;;7.30;4.95;;;;;;;;;;10142679;28;20052;-65
2023/06/12 20:10:23;;;;;;;4.82;4.32;;;;;;;;;;10121915;28;20065;-84
2023/06/12 20:15:17;;;;;;;5.47;4.97;;;;;;;;;;10138181;28;20052;-71
2023/06/12 20:20:10;;;;;;;6.05;4.45;;;;;;;;;;10124696;28;20506;-75
2023/06/12 20:25:04;;;;;;;5.30;3.40;;;;;;;;;;10102525;28;20050;-78
2023/06/12 20:30:09;;;;;;;5.03;3.20;;;;;;;;;;10117870;28;20079;-72
2023/06/12 20:35:02;;;;;;;6.25;3.20;;;;;;;;;;10123297;28;20080;-74
2023/06/12 20:39:56;;;;;;;6.13;2.90;;;;;;;;;;10106826;28;20049;-73
2023/06/12 20:44:50;;;;;;;4.53;3.20;;;;;;;;;;10112455;28;20048;-72
2023/06/12 20:49:44;;;;;;;4.38;3.30;;;;;;;;;;10103983;28;20064;-75
2023/06/12 20:54:38;;;;;;;5.97;3.38;;;;;;;;;;10116241;28;20044;-74
2023/06/12 20:59:32;;;;;;;5.32;3.25;;;;;;;;;;10102103;28;20060;-74
2023/06/12 21:04:25;;;;;;;4.65;3.50;;;;;;;;;;10108492;28;20061;-75
2023/06/12 21:09:19;;;;;;;4.53;3.45;;;;;;;;;;10107511;28;20516;-74
2023/06/12 21:14:17;;;;;;;3.83;3.40;;;;;;;;;;10113535;28;20513;-73
2023/06/12 21:19:12;;;;;;;5.57;3.30;;;;;;;;;;10113203;28;20050;-73
2023/06/12 21:24:07;;;;;;;5.93;3.40;;;;;;;;;;10098969;28;20049;-71
2023/06/12 21:29:01;;;;;;;3.88;3.47;;;;;;;;;;10101183;28;20099;-71
2023/06/12 21:33:55;;;;;;;6.10;3.38;;;;;;;;;;10099291;28;20060;-70
2023/06/12 21:38:48;;;;;;;4.05;3.40;;;;;;;;;;10106560;28;20442;-73
2023/06/12 21:43:41;;;;;;;4.15;3.20;;;;;;;;;;10091891;28;20037;-76
2023/06/12 21:48:35;;;;;;;5.70;3.22;;;;;;;;;;10103463;28;20059;-75
2023/06/12 21:53:28;;;;;;;4.25;3.40;;;;;;;;;;10105555;28;20045;-75
2023/06/12 21:58:27;;;;;;;4.07;3.38;;;;;;;;;;10095943;28;20061;-75
2023/06/12 22:03:22;;;;;;;3.95;3.40;;;;;;;;;;10101488;28;20044;-70
2023/06/12 22:08:16;;;;;;;4.63;3.40;;;;;;;;;;10115820;28;20114;-70
2023/06/12 22:13:10;;;;;;;3.90;3.50;;;;;;;;;;10105930;28;20049;-71
2023/06/12 22:18:05;;;;;;;4.47;3.95;;;;;;;;;;10108691;28;20045;-74
2023/06/12 22:23:00;;;;;;;4.38;3.40;;;;;;;;;;10097450;28;20048;-72
2023/06/12 22:27:54;;;;;;;3.55;3.25;;;;;;;;;;10100541;28;20053;-73
2023/06/12 22:32:49;;;;;;;6.18;3.33;;;;;;;;;;10105719;28;20041;-72
2023/06/12 22:37:47;;;;;;;3.50;3.20;;;;;;;;;;10096835;28;20045;-72
2023/06/12 22:42:42;;;;;;;4.50;3.30;;;;;;;;;;10098391;28;20049;-72
2023/06/12 22:47:37;;;;;;;3.95;3.22;;;;;;;;;;10104185;28;20471;-72
2023/06/12 22:52:33;;;;;;;6.00;4.13;;;;;;;;;;10108655;28;20057;-72
2023/06/12 22:57:27;;;;;;;3.80;3.50;;;;;;;;;;10110306;28;20052;-72
2023/06/12 23:02:21;;;;;;;4.85;3.85;;;;;;;;;;10110006;28;20044;-71
2023/06/12 23:07:15;;;;;;;6.18;4.05;;;;;;;;;;10105712;28;20057;-73
2023/06/12 23:12:09;;;;;;;4.78;4.38;;;;;;;;;;10107605;28;20049;-71
2023/06/12 23:17:02;;;;;;;4.78;3.97;;;;;;;;;;10102990;28;20080;-80
2023/06/12 23:21:56;;;;;;;4.35;3.95;;;;;;;;;;10125893;28;20056;-79
2023/06/12 23:26:51;;;;;;;5.30;4.13;;;;;;;;;;10128648;28;20041;-79
2023/06/12 23:31:45;;;;;;;4.47;3.90;;;;;;;;;;10137451;28;20128;-79
2023/06/12 23:36:41;;;;;;;4.45;4.05;;;;;;;;;;10136046;28;20060;-79
2023/06/12 23:41:36;;;;;;;4.95;3.63;;;;;;;;;;10136283;28;20051;-79
2023/06/12 23:46:30;;;;;;;6.80;4.03;;;;;;;;;;10135813;28;20051;-79
2023/06/12 23:51:24;;;;;;;6.80;3.75;;;;;;;;;;10126944;28;20052;-79
2023/06/12 23:56:20;;;;;;;4.78;4.38;;;;;;;;;;10138122;28;20078;-79
